sensor_id;sensor_type;location;lat;lon;timestamp;pressure;altitude;pressure_sealevel;temperature;humidity
30708;BME280;17458;48.958;8.284;2024-02-21T00:02:41;101455.38;;;11.42;61.74
30708;BME280;17458;48.958;8.284;2024-02-21T00:05:24;101447.16;;;10.97;62.89
30708;BME280;17458;48.958;8.284;2024-02-21T00:08:08;101451.50;;;11.36;62.24
30708;BME280;17458;48.958;8.284;2024-02-21T00:10:52;101444.25;;;11.62;60.79
30708;BME280;17458;48.958;8.284;2024-02-21T00:13:36;101445.50;;;11.54;60.86
30708;BME280;17458;48.958;8.284;2024-02-21T00:16:20;101428.00;;;11.29;61.89
30708;BME280;17458;48.958;8.284;2024-02-21T00:19:04;101420.69;;;11.68;61.13
30708;BME280;17458;48.958;8.284;2024-02-21T00:21:48;101413.06;;;11.87;60.39
30708;BME280;17458;48.958;8.284;2024-02-21T00:24:32;101418.56;;;11.34;61.01
30708;BME280;17458;48.958;8.284;2024-02-21T00:27:16;101408.81;;;11.20;61.13
30708;BME280;17458;48.958;8.284;2024-02-21T00:30:00;101416.78;;;11.48;60.90
30708;BME280;17458;48.958;8.284;2024-02-21T00:32:44;101424.97;;;11.38;60.87
30708;BME280;17458;48.958;8.284;2024-02-21T00:35:28;101410.75;;;11.65;59.73
30708;BME280;17458;48.958;8.284;2024-02-21T00:38:12;101401.03;;;11.94;59.05
30708;BME280;17458;48.958;8.284;2024-02-21T00:40:56;101413.34;;;12.21;58.57
30708;BME280;17458;48.958;8.284;2024-02-21T00:43:41;101402.13;;;11.97;58.86
30708;BME280;17458;48.958;8.284;2024-02-21T00:46:25;101393.94;;;11.80;58.84
30708;BME280;17458;48.958;8.284;2024-02-21T00:49:09;101393.88;;;12.07;58.83
30708;BME280;17458;48.958;8.284;2024-02-21T00:51:53;101391.50;;;11.97;59.28
30708;BME280;17458;48.958;8.284;2024-02-21T00:54:37;101383.59;;;11.84;59.58
30708;BME280;17458;48.958;8.284;2024-02-21T00:57:21;101386.72;;;11.92;59.46
30708;BME280;17458;48.958;8.284;2024-02-21T01:00:06;101388.47;;;12.06;59.86
30708;BME280;17458;48.958;8.284;2024-02-21T01:02:51;101379.47;;;11.89;61.14
30708;BME280;17458;48.958;8.284;2024-02-21T01:05:35;101374.59;;;11.82;61.62
30708;BME280;17458;48.958;8.284;2024-02-21T01:08:19;101368.78;;;11.75;62.70
30708;BME280;17458;48.958;8.284;2024-02-21T01:11:03;101356.25;;;11.59;63.71
30708;BME280;17458;48.958;8.284;2024-02-21T01:13:47;101341.03;;;11.71;62.73
30708;BME280;17458;48.958;8.284;2024-02-21T01:16:31;101348.06;;;11.41;64.58
30708;BME280;17458;48.958;8.284;2024-02-21T01:19:15;101343.66;;;11.42;64.77
30708;BME280;17458;48.958;8.284;2024-02-21T01:21:59;101344.13;;;11.34;64.54
30708;BME280;17458;48.958;8.284;2024-02-21T01:24:43;101340.44;;;11.32;64.20
30708;BME280;17458;48.958;8.284;2024-02-21T01:27:27;101335.22;;;11.77;63.49
30708;BME280;17458;48.958;8.284;2024-02-21T01:30:11;101325.66;;;11.80;62.84
30708;BME280;17458;48.958;8.284;2024-02-21T01:32:55;101320.22;;;11.64;63.66
30708;BME280;17458;48.958;8.284;2024-02-21T01:35:39;101316.13;;;12.13;62.33
30708;BME280;17458;48.958;8.284;2024-02-21T01:38:23;101307.16;;;12.42;61.43
30708;BME280;17458;48.958;8.284;2024-02-21T01:41:07;101284.28;;;12.46;61.18
30708;BME280;17458;48.958;8.284;2024-02-21T01:43:51;101296.06;;;12.34;61.47
30708;BME280;17458;48.958;8.284;2024-02-21T01:46:36;101305.56;;;12.00;61.82
30708;BME280;17458;48.958;8.284;2024-02-21T01:49:21;101313.81;;;11.75;62.92
30708;BME280;17458;48.958;8.284;2024-02-21T01:52:05;101315.00;;;11.80;62.67
30708;BME280;17458;48.958;8.284;2024-02-21T01:54:50;101298.06;;;11.93;62.24
30708;BME280;17458;48.958;8.284;2024-02-21T01:57:34;101306.50;;;12.00;61.59
30708;BME280;17458;48.958;8.284;2024-02-21T02:00:19;101303.44;;;11.94;61.54
30708;BME280;17458;48.958;8.284;2024-02-21T02:03:03;101299.94;;;12.10;60.79
30708;BME280;17458;48.958;8.284;2024-02-21T02:05:49;101316.94;;;12.12;60.56
30708;BME280;17458;48.958;8.284;2024-02-21T02:08:33;101313.13;;;11.92;61.10
30708;BME280;17458;48.958;8.284;2024-02-21T02:11:18;101301.91;;;11.98;60.40
30708;BME280;17458;48.958;8.284;2024-02-21T02:14:02;101302.81;;;12.13;59.89
30708;BME280;17458;48.958;8.284;2024-02-21T02:16:47;101297.63;;;11.57;61.34
30708;BME280;17458;48.958;8.284;2024-02-21T02:19:33;101294.63;;;11.81;61.09
30708;BME280;17458;48.958;8.284;2024-02-21T02:22:22;101281.78;;;12.18;59.81
30708;BME280;17458;48.958;8.284;2024-02-21T02:25:08;101278.94;;;12.00;59.35
30708;BME280;17458;48.958;8.284;2024-02-21T02:27:53;101287.56;;;11.96;59.88
30708;BME280;17458;48.958;8.284;2024-02-21T02:30:38;101294.91;;;12.00;59.08
30708;BME280;17458;48.958;8.284;2024-02-21T02:33:22;101273.97;;;12.21;59.00
30708;BME280;17458;48.958;8.284;2024-02-21T02:36:06;101260.31;;;11.85;60.22
30708;BME280;17458;48.958;8.284;2024-02-21T02:38:50;101254.38;;;11.89;59.84
30708;BME280;17458;48.958;8.284;2024-02-21T02:41:37;101241.78;;;11.87;60.03
30708;BME280;17458;48.958;8.284;2024-02-21T02:44:21;101258.66;;;11.00;61.73
30708;BME280;17458;48.958;8.284;2024-02-21T02:47:05;101263.97;;;11.43;60.94
30708;BME280;17458;48.958;8.284;2024-02-21T02:49:49;101254.13;;;11.27;61.05
30708;BME280;17458;48.958;8.284;2024-02-21T02:52:34;101240.06;;;11.87;59.01
30708;BME280;17458;48.958;8.284;2024-02-21T02:55:18;101236.06;;;11.51;59.72
30708;BME280;17458;48.958;8.284;2024-02-21T02:58:03;101229.38;;;11.43;60.26
30708;BME280;17458;48.958;8.284;2024-02-21T03:00:47;101227.84;;;11.61;60.18
30708;BME280;17458;48.958;8.284;2024-02-21T03:03:31;101228.38;;;11.56;59.71
30708;BME280;17458;48.958;8.284;2024-02-21T03:06:15;101221.19;;;11.25;60.05
30708;BME280;17458;48.958;8.284;2024-02-21T03:08:59;101214.13;;;11.11;61.06
30708;BME280;17458;48.958;8.284;2024-02-21T03:11:44;101213.97;;;11.23;60.56
30708;BME280;17458;48.958;8.284;2024-02-21T03:14:29;101194.72;;;11.56;60.14
30708;BME280;17458;48.958;8.284;2024-02-21T03:17:13;101187.09;;;11.62;59.64
30708;BME280;17458;48.958;8.284;2024-02-21T03:19:57;101193.25;;;11.61;59.75
30708;BME280;17458;48.958;8.284;2024-02-21T03:22:41;101194.28;;;11.49;59.84
30708;BME280;17458;48.958;8.284;2024-02-21T03:25:25;101187.94;;;11.61;58.93
30708;BME280;17458;48.958;8.284;2024-02-21T03:28:09;101184.50;;;11.93;58.29
30708;BME280;17458;48.958;8.284;2024-02-21T03:30:53;101183.22;;;11.72;58.30
30708;BME280;17458;48.958;8.284;2024-02-21T03:33:37;101181.09;;;11.96;57.80
30708;BME280;17458;48.958;8.284;2024-02-21T03:36:21;101184.59;;;11.95;58.06
30708;BME280;17458;48.958;8.284;2024-02-21T03:39:06;101183.94;;;11.99;57.69
30708;BME280;17458;48.958;8.284;2024-02-21T03:41:52;101171.75;;;11.88;58.18
30708;BME280;17458;48.958;8.284;2024-02-21T03:44:36;101170.94;;;11.89;58.46
30708;BME280;17458;48.958;8.284;2024-02-21T03:47:20;101170.22;;;11.62;59.20
30708;BME280;17458;48.958;8.284;2024-02-21T03:50:05;101174.16;;;11.83;58.64
30708;BME280;17458;48.958;8.284;2024-02-21T03:52:50;101168.94;;;11.55;59.40
30708;BME280;17458;48.958;8.284;2024-02-21T03:55:34;101177.19;;;11.45;59.75
30708;BME280;17458;48.958;8.284;2024-02-21T03:58:17;101180.78;;;11.31;60.01
30708;BME280;17458;48.958;8.284;2024-02-21T04:01:02;101187.66;;;11.27;60.09
30708;BME280;17458;48.958;8.284;2024-02-21T04:03:46;101185.38;;;11.33;59.90
30708;BME280;17458;48.958;8.284;2024-02-21T04:06:30;101188.66;;;11.44;59.59
30708;BME280;17458;48.958;8.284;2024-02-21T04:09:14;101192.25;;;11.30;59.86
30708;BME280;17458;48.958;8.284;2024-02-21T04:11:57;101195.38;;;11.23;60.24
30708;BME280;17458;48.958;8.284;2024-02-21T04:14:41;101199.56;;;11.19;60.17
30708;BME280;17458;48.958;8.284;2024-02-21T04:17:25;101179.03;;;11.02;60.69
30708;BME280;17458;48.958;8.284;2024-02-21T04:20:15;101186.34;;;10.91;61.02
30708;BME280;17458;48.958;8.284;2024-02-21T04:23:00;101180.28;;;10.79;60.98
30708;BME280;17458;48.958;8.284;2024-02-21T04:25:44;101175.47;;;10.74;61.61
30708;BME280;17458;48.958;8.284;2024-02-21T04:28:28;101173.19;;;10.65;61.50
30708;BME280;17458;48.958;8.284;2024-02-21T04:31:11;101180.84;;;10.60;61.75
30708;BME280;17458;48.958;8.284;2024-02-21T04:33:56;101175.84;;;10.65;61.58
30708;BME280;17458;48.958;8.284;2024-02-21T04:36:40;101162.09;;;10.72;61.23
30708;BME280;17458;48.958;8.284;2024-02-21T04:39:25;101160.78;;;10.51;62.32
30708;BME280;17458;48.958;8.284;2024-02-21T04:42:09;101154.72;;;10.53;62.15
30708;BME280;17458;48.958;8.284;2024-02-21T04:44:53;101158.16;;;10.65;61.78
30708;BME280;17458;48.958;8.284;2024-02-21T04:47:36;101165.28;;;10.52;61.69
30708;BME280;17458;48.958;8.284;2024-02-21T04:50:20;101154.00;;;10.56;61.84
30708;BME280;17458;48.958;8.284;2024-02-21T04:53:04;101152.38;;;10.73;61.57
30708;BME280;17458;48.958;8.284;2024-02-21T04:55:48;101147.03;;;10.58;61.67
30708;BME280;17458;48.958;8.284;2024-02-21T04:58:32;101129.38;;;10.58;61.64
30708;BME280;17458;48.958;8.284;2024-02-21T05:01:16;101114.88;;;10.53;61.58
30708;BME280;17458;48.958;8.284;2024-02-21T05:04:00;101103.19;;;10.64;60.98
30708;BME280;17458;48.958;8.284;2024-02-21T05:06:44;101110.03;;;10.46;61.37
30708;BME280;17458;48.958;8.284;2024-02-21T05:09:28;101101.00;;;10.29;62.04
30708;BME280;17458;48.958;8.284;2024-02-21T05:12:12;101104.19;;;10.24;62.29
30708;BME280;17458;48.958;8.284;2024-02-21T05:14:56;101087.13;;;10.48;61.73
30708;BME280;17458;48.958;8.284;2024-02-21T05:17:40;101089.53;;;10.58;61.18
30708;BME280;17458;48.958;8.284;2024-02-21T05:20:24;101100.06;;;10.57;61.31
30708;BME280;17458;48.958;8.284;2024-02-21T05:23:08;101088.22;;;9.96;63.00
30708;BME280;17458;48.958;8.284;2024-02-21T05:25:52;101087.56;;;9.72;64.07
30708;BME280;17458;48.958;8.284;2024-02-21T05:28:36;101093.38;;;9.80;64.06
30708;BME280;17458;48.958;8.284;2024-02-21T05:31:20;101085.66;;;9.98;63.86
30708;BME280;17458;48.958;8.284;2024-02-21T05:34:05;101094.94;;;10.04;63.33
30708;BME280;17458;48.958;8.284;2024-02-21T05:36:49;101093.38;;;10.21;62.78
30708;BME280;17458;48.958;8.284;2024-02-21T05:39:36;101092.56;;;10.22;62.72
30708;BME280;17458;48.958;8.284;2024-02-21T05:42:20;101089.81;;;10.20;62.67
30708;BME280;17458;48.958;8.284;2024-02-21T05:45:04;101071.00;;;10.17;62.56
30708;BME280;17458;48.958;8.284;2024-02-21T05:47:48;101072.16;;;10.08;62.98
30708;BME280;17458;48.958;8.284;2024-02-21T05:50:32;101069.56;;;9.94;63.54
30708;BME280;17458;48.958;8.284;2024-02-21T05:53:16;101065.06;;;9.93;63.58
30708;BME280;17458;48.958;8.284;2024-02-21T05:56:00;101069.09;;;9.74;64.38
30708;BME280;17458;48.958;8.284;2024-02-21T05:58:45;101070.38;;;9.93;64.06
30708;BME280;17458;48.958;8.284;2024-02-21T06:01:29;101072.63;;;9.87;64.21
30708;BME280;17458;48.958;8.284;2024-02-21T06:04:13;101073.13;;;9.95;63.69
30708;BME280;17458;48.958;8.284;2024-02-21T06:06:56;101068.78;;;9.82;63.86
30708;BME280;17458;48.958;8.284;2024-02-21T06:09:44;101077.72;;;9.84;63.96
30708;BME280;17458;48.958;8.284;2024-02-21T06:12:29;101063.56;;;9.71;64.23
30708;BME280;17458;48.958;8.284;2024-02-21T06:15:13;101049.63;;;10.01;63.25
30708;BME280;17458;48.958;8.284;2024-02-21T06:18:00;101056.34;;;10.09;63.33
30708;BME280;17458;48.958;8.284;2024-02-21T06:20:51;101048.69;;;10.01;63.41
30708;BME280;17458;48.958;8.284;2024-02-21T06:23:36;101047.09;;;9.48;64.41
30708;BME280;17458;48.958;8.284;2024-02-21T06:26:20;101039.47;;;9.53;64.46
30708;BME280;17458;48.958;8.284;2024-02-21T06:29:05;101045.97;;;9.45;65.16
30708;BME280;17458;48.958;8.284;2024-02-21T06:31:49;101048.81;;;9.61;64.88
30708;BME280;17458;48.958;8.284;2024-02-21T06:34:33;101031.09;;;9.47;65.11
30708;BME280;17458;48.958;8.284;2024-02-21T06:37:17;101031.03;;;10.01;63.97
30708;BME280;17458;48.958;8.284;2024-02-21T06:40:01;101043.91;;;10.08;63.50
30708;BME280;17458;48.958;8.284;2024-02-21T06:42:47;101032.78;;;10.01;63.34
30708;BME280;17458;48.958;8.284;2024-02-21T06:45:32;101042.22;;;9.95;63.85
30708;BME280;17458;48.958;8.284;2024-02-21T06:48:16;101040.31;;;10.36;62.70
30708;BME280;17458;48.958;8.284;2024-02-21T06:51:00;101040.31;;;10.36;62.41
30708;BME280;17458;48.958;8.284;2024-02-21T06:53:44;101033.22;;;10.49;61.90
30708;BME280;17458;48.958;8.284;2024-02-21T06:56:28;101032.75;;;10.56;61.61
30708;BME280;17458;48.958;8.284;2024-02-21T06:59:12;101032.94;;;10.59;61.39
30708;BME280;17458;48.958;8.284;2024-02-21T07:01:59;101044.16;;;10.41;62.27
30708;BME280;17458;48.958;8.284;2024-02-21T07:04:44;101050.81;;;10.19;62.88
30708;BME280;17458;48.958;8.284;2024-02-21T07:07:28;101039.03;;;10.16;63.18
30708;BME280;17458;48.958;8.284;2024-02-21T07:10:13;101036.75;;;10.35;62.32
30708;BME280;17458;48.958;8.284;2024-02-21T07:12:58;101025.78;;;10.58;61.70
30708;BME280;17458;48.958;8.284;2024-02-21T07:15:42;101023.31;;;10.76;61.47
30708;BME280;17458;48.958;8.284;2024-02-21T07:18:26;101030.66;;;10.80;60.89
30708;BME280;17458;48.958;8.284;2024-02-21T07:21:10;101032.56;;;10.97;60.69
30708;BME280;17458;48.958;8.284;2024-02-21T07:23:54;101024.75;;;11.00;60.59
30708;BME280;17458;48.958;8.284;2024-02-21T07:26:41;101028.88;;;11.10;60.51
30708;BME280;17458;48.958;8.284;2024-02-21T07:29:26;101017.59;;;11.14;59.97
30708;BME280;17458;48.958;8.284;2024-02-21T07:32:12;101016.75;;;11.30;59.96
30708;BME280;17458;48.958;8.284;2024-02-21T07:34:56;101017.16;;;11.37;59.48
30708;BME280;17458;48.958;8.284;2024-02-21T07:37:43;101010.56;;;11.46;59.20
30708;BME280;17458;48.958;8.284;2024-02-21T07:40:27;101019.00;;;11.38;59.65
30708;BME280;17458;48.958;8.284;2024-02-21T07:43:11;101031.88;;;11.62;59.35
30708;BME280;17458;48.958;8.284;2024-02-21T07:45:55;101024.81;;;11.62;59.49
30708;BME280;17458;48.958;8.284;2024-02-21T07:48:40;101022.03;;;11.45;59.92
30708;BME280;17458;48.958;8.284;2024-02-21T07:51:27;101030.72;;;11.73;59.78
30708;BME280;17458;48.958;8.284;2024-02-21T07:54:12;101021.66;;;11.69;59.69
30708;BME280;17458;48.958;8.284;2024-02-21T07:56:56;101018.41;;;12.06;58.94
30708;BME280;17458;48.958;8.284;2024-02-21T07:59:40;101017.16;;;11.68;60.04
30708;BME280;17458;48.958;8.284;2024-02-21T08:02:24;101010.72;;;11.80;59.83
30708;BME280;17458;48.958;8.284;2024-02-21T08:05:08;101001.59;;;12.07;59.63
30708;BME280;17458;48.958;8.284;2024-02-21T08:07:52;101008.50;;;12.20;58.87
30708;BME280;17458;48.958;8.284;2024-02-21T08:10:36;101004.88;;;12.35;58.42
30708;BME280;17458;48.958;8.284;2024-02-21T08:13:23;100999.81;;;12.40;58.55
30708;BME280;17458;48.958;8.284;2024-02-21T08:16:07;101009.06;;;12.64;57.70
30708;BME280;17458;48.958;8.284;2024-02-21T08:18:51;100994.91;;;11.83;59.21
30708;BME280;17458;48.958;8.284;2024-02-21T08:21:35;100992.75;;;12.24;58.14
30708;BME280;17458;48.958;8.284;2024-02-21T08:24:19;100988.16;;;12.38;58.04
30708;BME280;17458;48.958;8.284;2024-02-21T08:27:03;100988.44;;;11.94;58.44
30708;BME280;17458;48.958;8.284;2024-02-21T08:29:47;100986.13;;;12.00;58.57
30708;BME280;17458;48.958;8.284;2024-02-21T08:32:31;100981.19;;;12.07;58.44
30708;BME280;17458;48.958;8.284;2024-02-21T08:35:15;100977.03;;;11.96;58.44
30708;BME280;17458;48.958;8.284;2024-02-21T08:37:59;100971.25;;;12.37;58.05
30708;BME280;17458;48.958;8.284;2024-02-21T08:40:43;100970.84;;;12.46;57.43
30708;BME280;17458;48.958;8.284;2024-02-21T08:43:27;100977.72;;;12.59;57.49
30708;BME280;17458;48.958;8.284;2024-02-21T08:46:12;100965.38;;;12.27;57.54
30708;BME280;17458;48.958;8.284;2024-02-21T08:48:56;100964.41;;;12.59;57.07
30708;BME280;17458;48.958;8.284;2024-02-21T08:51:40;100961.50;;;12.38;57.54
30708;BME280;17458;48.958;8.284;2024-02-21T08:54:24;100968.56;;;12.20;57.68
30708;BME280;17458;48.958;8.284;2024-02-21T08:57:08;100965.25;;;11.91;57.99
30708;BME280;17458;48.958;8.284;2024-02-21T08:59:52;100962.44;;;12.22;57.96
30708;BME280;17458;48.958;8.284;2024-02-21T09:02:40;100959.91;;;12.58;57.28
30708;BME280;17458;48.958;8.284;2024-02-21T09:05:24;100967.28;;;12.63;57.12
30708;BME280;17458;48.958;8.284;2024-02-21T09:08:08;100955.72;;;12.81;57.01
30708;BME280;17458;48.958;8.284;2024-02-21T09:10:53;100953.13;;;12.64;57.06
30708;BME280;17458;48.958;8.284;2024-02-21T09:13:37;100959.16;;;12.60;57.06
30708;BME280;17458;48.958;8.284;2024-02-21T09:16:21;100949.41;;;12.78;56.88
30708;BME280;17458;48.958;8.284;2024-02-21T09:19:06;100946.13;;;12.84;56.21
30708;BME280;17458;48.958;8.284;2024-02-21T09:21:54;100938.47;;;13.26;55.61
30708;BME280;17458;48.958;8.284;2024-02-21T09:24:38;100928.38;;;12.67;56.00
30708;BME280;17458;48.958;8.284;2024-02-21T09:27:22;100921.94;;;12.62;56.23
30708;BME280;17458;48.958;8.284;2024-02-21T09:30:06;100922.41;;;12.37;56.67
30708;BME280;17458;48.958;8.284;2024-02-21T09:32:50;100925.94;;;13.07;55.84
30708;BME280;17458;48.958;8.284;2024-02-21T09:35:34;100924.59;;;12.62;56.15
30708;BME280;17458;48.958;8.284;2024-02-21T09:38:18;100918.56;;;12.84;55.43
30708;BME280;17458;48.958;8.284;2024-02-21T09:43:55;100920.16;;;12.80;55.92
30708;BME280;17458;48.958;8.284;2024-02-21T09:46:44;100914.75;;;13.14;55.38
30708;BME280;17458;48.958;8.284;2024-02-21T09:49:34;100915.47;;;12.74;55.91
30708;BME280;17458;48.958;8.284;2024-02-21T09:52:21;100910.34;;;13.52;54.11
30708;BME280;17458;48.958;8.284;2024-02-21T09:55:07;100903.88;;;13.27;54.49
30708;BME280;17458;48.958;8.284;2024-02-21T09:57:56;100906.69;;;13.30;55.13
30708;BME280;17458;48.958;8.284;2024-02-21T10:00:41;100892.59;;;13.52;54.08
30708;BME280;17458;48.958;8.284;2024-02-21T10:03:26;100894.97;;;13.84;54.03
30708;BME280;17458;48.958;8.284;2024-02-21T10:06:10;100894.38;;;13.34;54.94
30708;BME280;17458;48.958;8.284;2024-02-21T10:08:54;100887.53;;;13.39;54.29
30708;BME280;17458;48.958;8.284;2024-02-21T10:11:38;100882.50;;;14.04;53.18
30708;BME280;17458;48.958;8.284;2024-02-21T10:14:23;100877.50;;;13.33;53.74
30708;BME280;17458;48.958;8.284;2024-02-21T10:17:07;100869.72;;;13.20;53.48
30708;BME280;17458;48.958;8.284;2024-02-21T10:19:53;100857.84;;;13.13;54.52
30708;BME280;17458;48.958;8.284;2024-02-21T10:22:38;100860.94;;;13.60;53.65
30708;BME280;17458;48.958;8.284;2024-02-21T10:25:23;100852.19;;;13.83;52.77
30708;BME280;17458;48.958;8.284;2024-02-21T10:28:07;100851.63;;;14.30;51.84
30708;BME280;17458;48.958;8.284;2024-02-21T10:30:51;100848.38;;;14.18;51.71
30708;BME280;17458;48.958;8.284;2024-02-21T10:33:36;100846.25;;;13.90;51.72
30708;BME280;17458;48.958;8.284;2024-02-21T10:36:21;100852.56;;;13.71;51.39
30708;BME280;17458;48.958;8.284;2024-02-21T10:39:06;100845.81;;;13.41;52.00
30708;BME280;17458;48.958;8.284;2024-02-21T10:41:50;100849.44;;;14.01;51.79
30708;BME280;17458;48.958;8.284;2024-02-21T10:44:39;100844.41;;;14.08;52.05
30708;BME280;17458;48.958;8.284;2024-02-21T10:47:25;100829.34;;;13.90;51.51
30708;BME280;17458;48.958;8.284;2024-02-21T10:50:11;100822.28;;;14.11;51.09
30708;BME280;17458;48.958;8.284;2024-02-21T10:53:09;100812.44;;;14.10;51.49
30708;BME280;17458;48.958;8.284;2024-02-21T10:56:06;100811.09;;;14.40;50.92
30708;BME280;17458;48.958;8.284;2024-02-21T10:58:57;100806.56;;;14.18;51.12
30708;BME280;17458;48.958;8.284;2024-02-21T11:01:41;100806.28;;;14.33;51.02
30708;BME280;17458;48.958;8.284;2024-02-21T11:04:26;100790.59;;;14.62;50.49
30708;BME280;17458;48.958;8.284;2024-02-21T11:07:11;100784.00;;;13.91;51.60
30708;BME280;17458;48.958;8.284;2024-02-21T11:09:55;100783.78;;;13.66;51.70
30708;BME280;17458;48.958;8.284;2024-02-21T11:12:39;100778.25;;;14.43;50.52
30708;BME280;17458;48.958;8.284;2024-02-21T11:15:26;100765.53;;;13.96;51.90
30708;BME280;17458;48.958;8.284;2024-02-21T11:18:11;100765.88;;;14.45;51.04
30708;BME280;17458;48.958;8.284;2024-02-21T11:20:55;100759.38;;;14.19;49.94
30708;BME280;17458;48.958;8.284;2024-02-21T11:23:39;100762.22;;;14.65;49.98
30708;BME280;17458;48.958;8.284;2024-02-21T11:26:23;100754.16;;;14.86;49.26
30708;BME280;17458;48.958;8.284;2024-02-21T11:29:07;100753.28;;;14.42;49.63
30708;BME280;17458;48.958;8.284;2024-02-21T11:31:53;100746.19;;;14.01;51.38
30708;BME280;17458;48.958;8.284;2024-02-21T11:34:37;100740.38;;;14.11;50.88
30708;BME280;17458;48.958;8.284;2024-02-21T11:37:25;100737.09;;;14.18;50.23
30708;BME280;17458;48.958;8.284;2024-02-21T11:40:10;100729.84;;;14.80;49.35
30708;BME280;17458;48.958;8.284;2024-02-21T11:42:59;100719.47;;;14.65;49.78
30708;BME280;17458;48.958;8.284;2024-02-21T11:45:43;100714.06;;;14.41;49.27
30708;BME280;17458;48.958;8.284;2024-02-21T11:48:27;100711.25;;;14.61;49.90
30708;BME280;17458;48.958;8.284;2024-02-21T11:51:26;100697.31;;;14.45;49.09
30708;BME280;17458;48.958;8.284;2024-02-21T11:54:10;100696.63;;;14.51;50.29
30708;BME280;17458;48.958;8.284;2024-02-21T11:56:55;100693.75;;;14.69;49.45
30708;BME280;17458;48.958;8.284;2024-02-21T11:59:39;100683.34;;;14.99;49.49
30708;BME280;17458;48.958;8.284;2024-02-21T12:02:26;100676.09;;;14.50;49.24
30708;BME280;17458;48.958;8.284;2024-02-21T12:05:10;100680.78;;;14.56;49.62
30708;BME280;17458;48.958;8.284;2024-02-21T12:07:54;100674.19;;;14.70;49.48
30708;BME280;17458;48.958;8.284;2024-02-21T12:10:39;100662.06;;;15.03;49.69
30708;BME280;17458;48.958;8.284;2024-02-21T12:13:23;100656.28;;;15.15;48.98
30708;BME280;17458;48.958;8.284;2024-02-21T12:16:07;100648.53;;;15.73;47.78
30708;BME280;17458;48.958;8.284;2024-02-21T12:18:55;100653.47;;;15.61;47.60
30708;BME280;17458;48.958;8.284;2024-02-21T12:21:40;100641.72;;;15.56;47.26
30708;BME280;17458;48.958;8.284;2024-02-21T12:24:28;100639.53;;;15.70;46.66
30708;BME280;17458;48.958;8.284;2024-02-21T12:27:13;100635.66;;;14.87;48.64
30708;BME280;17458;48.958;8.284;2024-02-21T12:29:57;100629.72;;;14.96;48.17
30708;BME280;17458;48.958;8.284;2024-02-21T12:32:41;100623.84;;;15.30;48.89
30708;BME280;17458;48.958;8.284;2024-02-21T12:35:25;100631.31;;;15.40;47.66
30708;BME280;17458;48.958;8.284;2024-02-21T12:38:10;100613.16;;;15.31;48.08
30708;BME280;17458;48.958;8.284;2024-02-21T12:40:55;100608.75;;;15.08;48.02
30708;BME280;17458;48.958;8.284;2024-02-21T12:43:40;100603.16;;;15.25;47.54
30708;BME280;17458;48.958;8.284;2024-02-21T12:46:24;100597.72;;;15.49;47.37
30708;BME280;17458;48.958;8.284;2024-02-21T12:49:08;100581.94;;;16.11;46.36
30708;BME280;17458;48.958;8.284;2024-02-21T12:51:52;100577.81;;;15.93;47.22
30708;BME280;17458;48.958;8.284;2024-02-21T12:54:36;100571.97;;;15.78;46.41
30708;BME280;17458;48.958;8.284;2024-02-21T12:57:20;100565.81;;;16.09;46.17
30708;BME280;17458;48.958;8.284;2024-02-21T13:00:06;100559.56;;;16.09;46.02
30708;BME280;17458;48.958;8.284;2024-02-21T13:02:52;100558.09;;;15.91;44.57
30708;BME280;17458;48.958;8.284;2024-02-21T13:05:37;100546.78;;;16.00;45.36
30708;BME280;17458;48.958;8.284;2024-02-21T13:08:22;100543.63;;;16.15;45.13
30708;BME280;17458;48.958;8.284;2024-02-21T13:11:06;100532.56;;;15.74;45.84
30708;BME280;17458;48.958;8.284;2024-02-21T13:13:51;100532.72;;;15.79;45.57
30708;BME280;17458;48.958;8.284;2024-02-21T13:16:35;100525.94;;;15.63;46.04
30708;BME280;17458;48.958;8.284;2024-02-21T13:19:23;100509.03;;;15.92;46.75
30708;BME280;17458;48.958;8.284;2024-02-21T13:22:06;100514.00;;;15.27;46.51
30708;BME280;17458;48.958;8.284;2024-02-21T13:24:51;100514.56;;;15.43;47.19
30708;BME280;17458;48.958;8.284;2024-02-21T13:27:35;100510.66;;;15.87;45.95
30708;BME280;17458;48.958;8.284;2024-02-21T13:30:19;100495.44;;;15.85;46.59
30708;BME280;17458;48.958;8.284;2024-02-21T13:33:03;100499.38;;;15.69;45.83
30708;BME280;17458;48.958;8.284;2024-02-21T13:35:48;100491.25;;;15.39;47.28
30708;BME280;17458;48.958;8.284;2024-02-21T13:38:32;100481.13;;;15.56;46.36
30708;BME280;17458;48.958;8.284;2024-02-21T13:41:15;100469.94;;;15.42;46.52
30708;BME280;17458;48.958;8.284;2024-02-21T13:44:00;100453.00;;;15.99;46.42
30708;BME280;17458;48.958;8.284;2024-02-21T13:46:44;100451.31;;;16.04;45.54
30708;BME280;17458;48.958;8.284;2024-02-21T13:49:28;100441.19;;;15.64;46.08
30708;BME280;17458;48.958;8.284;2024-02-21T13:52:14;100446.44;;;15.60;46.62
30708;BME280;17458;48.958;8.284;2024-02-21T13:54:58;100434.38;;;15.46;45.81
30708;BME280;17458;48.958;8.284;2024-02-21T13:57:42;100440.66;;;15.75;45.45
30708;BME280;17458;48.958;8.284;2024-02-21T14:00:26;100433.13;;;15.92;46.14
30708;BME280;17458;48.958;8.284;2024-02-21T14:03:11;100419.28;;;16.07;45.71
30708;BME280;17458;48.958;8.284;2024-02-21T14:05:56;100417.00;;;16.20;45.51
30708;BME280;17458;48.958;8.284;2024-02-21T14:08:40;100408.91;;;15.57;46.31
30708;BME280;17458;48.958;8.284;2024-02-21T14:11:23;100401.72;;;15.56;46.25
30708;BME280;17458;48.958;8.284;2024-02-21T14:14:07;100393.63;;;15.83;46.47
30708;BME280;17458;48.958;8.284;2024-02-21T14:16:51;100397.66;;;15.99;45.41
30708;BME280;17458;48.958;8.284;2024-02-21T14:19:35;100381.28;;;15.90;45.79
30708;BME280;17458;48.958;8.284;2024-02-21T14:22:19;100369.50;;;16.15;46.11
30708;BME280;17458;48.958;8.284;2024-02-21T14:25:04;100352.00;;;16.27;45.84